• Join FlightAware (Why Join?)
  • Login
  • US Flag 
08:00AM EDT


 

Airport Tracker/Info


-or-


 

Live Flight TrackerFlight Track Log ✈ FDX120 ✈ 18-Oct-2013 ✈ KMEM - CYEG

Flight Track Log - Related Links

Times and Time Zones

All times are in EDT time to prevent confusion due to time zone crossing. See the FDX120 flight status page for this flight to view local times or setup timezone preferences in your user account.

Time Position Orientation Groundspeed Altitude Reporting Facility
EDT Latitude Longitude Course Direction KTS MPH feet Rate Location/Type
05:38AM 35.0167 -89.9833 180° South 179 206 1,200  Level KMEM
05:39AM 34.9833 -89.9833 180° South 184 212 2,300 2,340 Climbing KMEM
05:40AM 34.9500 -90.0167 219° Southwest 197 227 4,500 1,860 Climbing KMEM
05:41AM 34.9500 -90.0833 270° West 250 288 5,900 2,100 Climbing KMEM
05:46AM 35.2850 -90.5350 270° West 407 468 18,200 2,220 Climbing FlightAware
05:47AM 35.3310 -90.5790 322° Northwest 413 475 19,300 900 Climbing FlightAware
05:47AM 35.3820 -90.6280 322° Northwest 413 475 19,300  Level FlightAware
05:48AM 35.4300 -90.6740 322° Northwest 413 475 19,300  Level FlightAware
05:49AM 35.4770 -90.7190 322° Northwest 413 475 19,300  Level FlightAware
05:49AM 35.5230 -90.7630 322° Northwest 413 475 19,300 4,620 Level FlightAware
05:50AM 35.6210 -90.8550 323° Northwest 443 510 24,700 4,140 Climbing FlightAware
05:51AM 35.7030 -90.9340 322° Northwest 444 511 25,400 420 Climbing FlightAware
05:51AM 35.7520 -90.9830 321° Northwest 444 511 25,400 2,100 Level FlightAware
05:52AM 35.8210 -91.0460 323° Northwest 446 513 27,800 2,340 Climbing FlightAware
05:53AM 35.8870 -91.1110 321° Northwest 443 510 28,400 420 Climbing FlightAware
05:53AM 35.9370 -91.1610 321° Northwest 443 510 28,400  Level FlightAware
05:54AM 35.9860 -91.2100 321° Northwest 443 510 28,400 3,060 Level FlightAware
05:54AM 36.0640 -91.2820 323° Northwest 425 489 32,000 3,120 Climbing FlightAware
05:55AM 36.1180 -91.3340 322° Northwest 432 497 32,000  Level FlightAware
05:56AM 36.1670 -91.3810 322° Northwest 432 497 32,000  Level FlightAware
05:56AM 36.2270 -91.4410 321° Northwest 430 495 32,000  Level FlightAware
05:57AM 36.2790 -91.4910 322° Northwest 427 491 32,000  Level FlightAware
05:57AM 36.3360 -91.5480 321° Northwest 426 490 32,000  Level FlightAware
05:58AM 36.4050 -91.6170 321° Northwest 429 494 32,000  Level FlightAware
05:59AM 36.4610 -91.6700 323° Northwest 429 494 32,000  Level FlightAware
05:59AM 36.5200 -91.7290 321° Northwest 428 493 32,000  Level FlightAware
06:00AM 36.5760 -91.7840 322° Northwest 426 490 32,000  Level FlightAware
06:00AM 36.6280 -91.8360 321° Northwest 428 493 32,000  Level FlightAware
06:01AM 36.6850 -91.8910 322° Northwest 429 494 32,000  Level FlightAware
06:02AM 36.7400 -91.9470 321° Northwest 431 496 32,000  Level FlightAware
06:02AM 36.7910 -91.9960 322° Northwest 431 496 32,000  Level FlightAware
06:03AM 36.8460 -92.0520 321° Northwest 430 495 32,000  Level FlightAware
06:03AM 36.9030 -92.1090 321° Northwest 427 491 32,000  Level FlightAware
06:04AM 36.9590 -92.1650 321° Northwest 425 489 32,000  Level FlightAware
06:05AM 37.0080 -92.2130 322° Northwest 424 488 32,000  Level FlightAware
06:05AM 37.0630 -92.2680 321° Northwest 427 491 32,000  Level FlightAware
06:06AM 37.1180 -92.3240 321° Northwest 429 494 32,000  Level FlightAware
06:06AM 37.1740 -92.3800 321° Northwest 426 490 32,000  Level FlightAware
06:07AM 37.2220 -92.4300 320° Northwest 423 487 32,000  Level FlightAware
06:07AM 37.2780 -92.4850 322° Northwest 423 487 32,000  Level FlightAware
06:08AM 37.3330 -92.5410 321° Northwest 423 487 32,000  Level FlightAware
06:09AM 37.3880 -92.5970 321° Northwest 424 488 32,000  Level FlightAware
06:09AM 37.4370 -92.6480 320° Northwest 424 488 32,000  Level FlightAware
06:10AM 37.4950 -92.7050 322° Northwest 422 486 32,000  Level FlightAware
06:10AM 37.5490 -92.7610 321° Northwest 420 483 32,000  Level FlightAware
06:11AM 37.6000 -92.8140 321° Northwest 417 480 32,000  Level FlightAware
06:12AM 37.6430 -92.8580 321° Northwest 417 480 32,000  Level FlightAware
06:12AM 37.7020 -92.9180 321° Northwest 417 480 32,000  Level FlightAware
06:13AM 37.7530 -92.9710 321° Northwest 418 481 32,000  Level FlightAware
06:13AM 37.8090 -93.0280 321° Northwest 419 482 32,000  Level FlightAware
06:14AM 37.8590 -93.0810 320° Northwest 418 481 32,000  Level FlightAware
06:14AM 37.9120 -93.1350 321° Northwest 419 482 32,000  Level FlightAware
06:15AM 37.9670 -93.1910 321° Northwest 422 486 32,000  Level FlightAware
06:16AM 38.0160 -93.2430 320° Northwest 422 486 32,000  Level FlightAware
06:16AM 38.0660 -93.2950 321° Northwest 423 487 32,000  Level FlightAware
06:17AM 38.1260 -93.3570 321° Northwest 426 490 32,000  Level FlightAware
06:17AM 38.1790 -93.4130 320° Northwest 429 494 32,000  Level FlightAware
06:18AM 38.2310 -93.4660 321° Northwest 432 497 32,000  Level FlightAware
06:19AM 38.2800 -93.5180 320° Northwest 437 503 32,000  Level FlightAware
06:19AM 38.3410 -93.5820 321° Northwest 438 504 32,000  Level FlightAware
06:20AM 38.4000 -93.6440 321° Northwest 434 499 32,000  Level FlightAware
06:20AM 38.4620 -93.7090 321° Northwest 434 499 32,000  Level FlightAware
06:21AM 38.5160 -93.7650 321° Northwest 435 501 32,000  Level FlightAware
06:22AM 38.5700 -93.8230 320° Northwest 435 501 32,000  Level FlightAware
06:22AM 38.6250 -93.8820 320° Northwest 435 501 32,000  Level FlightAware
06:23AM 38.6760 -93.9370 320° Northwest 435 501 32,000  Level FlightAware
06:23AM 38.7330 -93.9980 320° Northwest 432 497 32,000  Level FlightAware
06:24AM 38.7900 -94.0570 321° Northwest 430 495 32,000  Level FlightAware
06:24AM 38.8390 -94.1090 320° Northwest 429 494 32,000  Level FlightAware
06:25AM 38.8614 -94.1334 320° Northwest 429 494 32,000  Level FlightAware ADS-B
06:26AM 38.8916 -94.1662 320° Northwest 430 495 32,000  Level FlightAware ADS-B
06:26AM 38.9811 -94.2631 320° Northwest 430 495 32,000  Level FlightAware ADS-B
06:27AM 38.9999 -94.2828 321° Northwest 431 496 32,000  Level FlightAware ADS-B
06:27AM 39.0891 -94.3800 320° Northwest 430 495 32,000  Level FlightAware ADS-B
06:28AM 39.1630 -94.4590 320° Northwest 430 495 32,000  Level FlightAware
06:28AM 39.1689 -94.4659 318° Northwest 430 495 32,000  Level FlightAware ADS-B
06:29AM 39.2500 -94.5533 320° Northwest 430 495 32,000  Level FlightAware ADS-B
06:30AM 39.2620 -94.5666 319° Northwest 431 496 32,000  Level FlightAware ADS-B
06:30AM 39.3740 -94.6880 320° Northwest 432 497 32,000  Level FlightAware
06:31AM 39.3112 -94.6199 140° Southeast 433 498 32,000  Level FlightAware ADS-B
06:32AM 39.4820 -94.8070 320° Northwest 432 497 32,000  Level FlightAware
06:32AM 39.5350 -94.8660 319° Northwest 429 494 32,000  Level FlightAware
06:33AM 39.5830 -94.9190 320° Northwest 427 491 32,000  Level FlightAware
06:33AM 39.6360 -94.9770 320° Northwest 427 491 32,000  Level FlightAware
06:34AM 39.6785 -95.0234 320° Northwest 426 490 32,000  Level FlightAware ADS-B
06:34AM 39.7460 -95.1000 319° Northwest 424 488 32,000  Level FlightAware
06:35AM 39.7980 -95.1560 320° Northwest 425 489 32,000  Level FlightAware
06:36AM 39.8470 -95.2110 319° Northwest 426 490 32,000  Level FlightAware
06:36AM 39.9020 -95.2730 319° Northwest 426 490 32,000  Level FlightAware
06:37AM 39.9550 -95.3320 320° Northwest 423 487 32,000  Level FlightAware
06:37AM 40.0040 -95.3870 319° Northwest 422 486 32,000  Level FlightAware
06:38AM 40.0580 -95.4470 320° Northwest 426 490 32,000  Level FlightAware
06:39AM 40.1130 -95.5090 319° Northwest 425 489 32,000  Level FlightAware
06:39AM 40.1650 -95.5670 320° Northwest 421 484 32,000  Level FlightAware
06:40AM 40.2130 -95.6220 319° Northwest 422 486 32,000  Level FlightAware
06:40AM 40.2680 -95.6830 320° Northwest 424 488 32,000  Level FlightAware
06:41AM 40.3200 -95.7420 319° Northwest 428 493 32,000  Level FlightAware
06:41AM 40.3740 -95.8030 319° Northwest 425 489 32,000  Level FlightAware
06:42AM 40.4210 -95.8570 319° Northwest 420 483 32,000  Level FlightAware
06:43AM 40.4740 -95.9180 319° Northwest 416 479 32,000  Level FlightAware
06:43AM 40.5240 -95.9750 319° Northwest 416 479 32,000  Level FlightAware
06:44AM 40.5760 -96.0350 319° Northwest 415 478 32,000  Level FlightAware
06:44AM 40.6270 -96.0940 319° Northwest 420 483 32,000  Level FlightAware
06:45AM 40.6800 -96.1560 318° Northwest 418 481 32,000  Level FlightAware
06:45AM 40.7250 -96.2060 320° Northwest 413 475 32,000  Level FlightAware
06:46AM 40.7770 -96.2660 319° Northwest 413 475 32,000  Level FlightAware
06:47AM 40.8310 -96.3300 318° Northwest 417 480 32,000  Level FlightAware
06:47AM 40.8780 -96.3840 319° Northwest 418 481 32,000  Level FlightAware
06:48AM 40.9340 -96.4490 319° Northwest 415 478 32,000  Level FlightAware
06:48AM 40.9810 -96.5030 319° Northwest 413 475 32,000  Level FlightAware
06:49AM 41.0310 -96.5620 318° Northwest 415 478 32,000  Level FlightAware
06:50AM 41.0840 -96.6240 319° Northwest 415 478 32,000  Level FlightAware
06:50AM 41.1340 -96.6830 318° Northwest 412 474 32,000  Level FlightAware
06:51AM 41.1800 -96.7370 319° Northwest 410 472 32,000  Level FlightAware
06:51AM 41.2330 -96.8010 318° Northwest 411 473 32,000  Level FlightAware
06:52AM 41.2850 -96.8610 319° Northwest 414 476 32,000 300 Level FlightAware
06:52AM 41.3310 -96.9150 319° Northwest 415 478 32,400 960 Climbing FlightAware
06:53AM 41.3810 -96.9750 318° Northwest 417 480 33,100 1,140 Climbing FlightAware
06:54AM 41.4340 -97.0380 318° Northwest 414 476 33,800 780 Climbing FlightAware
06:54AM 41.4790 -97.0910 319° Northwest 418 481 34,000 120 Climbing FlightAware
06:55AM 41.5310 -97.1530 318° Northwest 418 481 34,000  Level FlightAware
06:55AM 41.5840 -97.2170 318° Northwest 418 481 34,000  Level FlightAware
06:56AM 41.6360 -97.2790 318° Northwest 418 481 34,000  Level FlightAware
06:57AM 41.6840 -97.3360 318° Northwest 417 480 34,000  Level FlightAware
06:57AM 41.7320 -97.3940 318° Northwest 411 473 34,000  Level FlightAware
06:58AM 41.7790 -97.4520 317° Northwest 413 475 34,000  Level FlightAware
06:58AM 41.8360 -97.5220 318° Northwest 419 482 34,000 60 Level FlightAware
06:59AM 41.8870 -97.5830 318° Northwest 424 488 34,100  Climbing FlightAware
07:00AM 41.9370 -97.6430 318° Northwest 424 488 34,000 -120 Descending FlightAware
07:00AM 41.9870 -97.7030 318° Northwest 424 488 34,000  Level FlightAware
07:01AM 42.0360 -97.7640 317° Northwest 428 493 34,000  Level FlightAware
07:01AM 42.0890 -97.8290 318° Northwest 428 493 34,000  Level FlightAware
07:02AM 42.1380 -97.8900 317° Northwest 432 497 34,000  Level FlightAware
07:02AM 42.1910 -97.9540 318° Northwest 437 503 34,000  Level FlightAware
07:03AM 42.2430 -98.0190 317° Northwest 436 502 34,000  Level FlightAware
07:04AM 42.2980 -98.0860 318° Northwest 427 491 34,000  Level FlightAware
07:04AM 42.3470 -98.1470 317° Northwest 423 487 34,000  Level FlightAware
07:05AM 42.3940 -98.2060 317° Northwest 424 488 34,000  Level FlightAware
07:05AM 42.4470 -98.2730 317° Northwest 428 493 34,000  Level FlightAware
07:06AM 42.5020 -98.3400 318° Northwest 428 493 34,000  Level FlightAware
07:06AM 42.5490 -98.3990 317° Northwest 426 490 34,000  Level FlightAware
07:07AM 42.5980 -98.4600 318° Northwest 423 487 34,000  Level FlightAware
07:08AM 42.6520 -98.5270 318° Northwest 423 487 34,000  Level FlightAware
07:08AM 42.7050 -98.5950 317° Northwest 433 498 34,000  Level FlightAware
07:09AM 42.7500 -98.6520 317° Northwest 433 498 34,000  Level FlightAware
07:09AM 42.8040 -98.7210 317° Northwest 428 493 34,000  Level FlightAware
07:10AM 42.8550 -98.7850 317° Northwest 429 494 34,000  Level FlightAware
07:11AM 42.9080 -98.8520 317° Northwest 438 504 34,000  Level FlightAware
07:11AM 42.9560 -98.9120 318° Northwest 440 506 34,000  Level FlightAware
07:12AM 43.0080 -98.9780 317° Northwest 433 498 34,000  Level FlightAware
07:12AM 43.0600 -99.0430 318° Northwest 432 497 34,000  Level FlightAware
07:13AM 43.1130 -99.1130 316° Northwest 438 504 34,000  Level FlightAware
07:14AM 43.1670 -99.1840 316° Northwest 439 505 34,000  Level FlightAware
07:14AM 43.2260 -99.2590 317° Northwest 440 506 34,000  Level FlightAware
07:15AM 43.2810 -99.3290 317° Northwest 439 505 34,000  Level FlightAware
07:15AM 43.3290 -99.3930 316° Northwest 440 506 34,000  Level FlightAware
07:16AM 43.3830 -99.4620 317° Northwest 440 506 34,000  Level FlightAware
07:17AM 43.4350 -99.5300 316° Northwest 441 507 34,000  Level FlightAware
07:17AM 43.5070 -99.6240 317° Northwest 441 507 34,000  Level FlightAware
07:18AM 43.5620 -99.6960 317° Northwest 440 506 34,000  Level FlightAware
07:18AM 43.6070 -99.7560 316° Northwest 442 509 34,000  Level FlightAware
07:19AM 43.6620 -99.8290 316° Northwest 444 511 34,000  Level FlightAware
07:20AM 43.7170 -99.8990 317° Northwest 444 511 34,000  Level FlightAware
07:20AM 43.7610 -99.9600 315° West 444 511 34,000  Level FlightAware
07:21AM 43.8200 -100.0370 317° Northwest 442 509 34,000  Level FlightAware
07:21AM 43.8670 -100.1020 315° West 443 510 34,000  Level FlightAware
07:22AM 43.9300 -100.1840 317° Northwest 442 509 34,000  Level FlightAware
07:23AM 43.9810 -100.2510 317° Northwest 442 509 34,000  Level FlightAware
07:23AM 44.0310 -100.3180 316° Northwest 442 509 34,000  Level FlightAware
07:24AM 44.0760 -100.3790 316° Northwest 442 509 34,000  Level FlightAware
07:25AM 44.1220 -100.4410 316° Northwest 442 509 34,000  Level FlightAware
07:25AM 44.1670 -100.5020 316° Northwest 442 509 34,000  Level FlightAware
07:26AM 44.2160 -100.5670 316° Northwest 442 509 34,000  Level FlightAware
07:26AM 44.2620 -100.6300 316° Northwest 442 509 34,000  Level FlightAware
07:27AM 44.3070 -100.6900 316° Northwest 442 509 34,000  Level FlightAware
07:28AM 44.3530 -100.7530 316° Northwest 442 509 34,000  Level FlightAware
07:28AM 44.3960 -100.8100 317° Northwest 442 509 34,000  Level FlightAware
07:29AM 44.4420 -100.8730 316° Northwest 442 509 34,000  Level FlightAware
07:29AM 44.4870 -100.9340 316° Northwest 442 509 34,000  Level FlightAware
07:30AM 44.5320 -100.9950 316° Northwest 442 509 34,000  Level FlightAware
07:31AM 44.5770 -101.0560 316° Northwest 442 509 34,000  Level FlightAware
07:31AM 44.6220 -101.1170 316° Northwest 442 509 34,000  Level FlightAware
07:32AM 44.6680 -101.1800 316° Northwest 442 509 34,000  Level FlightAware
07:32AM 44.7130 -101.2410 316° Northwest 442 509 34,000  Level FlightAware
07:33AM 44.8850 -101.4889 316° Northwest 442 509 34,000  Level Salt Lake Center
07:34AM 44.9811 -101.6264 315° West 442 509 34,000  Level Salt Lake Center
07:35AM 45.0681 -101.7497 315° West 441 507 34,000  Level Salt Lake Center
07:36AM 45.1550 -101.8739 315° West 444 511 34,000  Level Salt Lake Center
07:37AM 45.2425 -101.9961 315° West 444 511 34,000  Level Salt Lake Center
07:38AM 45.3294 -102.1200 315° West 444 511 34,000 -60 Level Salt Lake Center
07:39AM 45.4150 -102.2442 314° West 442 509 33,900  Descending Salt Lake Center
07:40AM 45.5025 -102.3722 314° West 447 514 34,000  Climbing Salt Lake Center
07:41AM 45.5881 -102.4964 315° West 445 512 34,000 -60 Level Salt Lake Center
07:42AM 45.6750 -102.6189 315° West 443 510 33,900  Descending Salt Lake Center
07:43AM 45.7608 -102.7447 314° West 441 507 34,000  Climbing Salt Lake Center
07:44AM 45.8458 -102.8697 314° West 441 507 34,000  Level Salt Lake Center
07:45AM 45.9294 -102.9969 313° West 439 505 34,000  Level Salt Lake Center
07:46AM 46.0147 -103.1206 315° West 438 504 34,000  Level Salt Lake Center
07:47AM 46.0981 -103.2442 314° West 435 501 34,000  Level Salt Lake Center
07:48AM 46.1808 -103.3689 314° West 433 498 34,000 -60 Level Salt Lake Center
07:49AM 46.2636 -103.4964 313° West 433 498 33,900 -60 Descending Salt Lake Center
07:50AM 46.3464 -103.6206 314° West 433 498 33,900  Level Salt Lake Center
07:51AM 46.4278 -103.7433 314° West 430 495 34,000  Climbing Salt Lake Center
07:52AM 46.5092 -103.8686 313° West 426 490 34,000 -60 Level Salt Lake Center
07:53AM 46.5911 -103.9964 313° West 429 494 33,900  Descending Salt Lake Center
07:54AM 46.6725 -104.1211 314° West 429 494 34,000  Climbing Salt Lake Center
07:55AM 46.7533 -104.2464 313° West 426 490 34,000  Level Salt Lake Center
07:56AM 46.8350 -104.3753 313° West 428 493 34,000  Level Salt Lake Center
07:57AM 46.9161 -104.5011 313° West 428 493 34,000 -60 Level Salt Lake Center
07:58AM 46.9953 -104.6258 313° West 424 488 33,900  Descending Salt Lake Center
07:59AM 47.0733 -104.7500 313° West 420 483 34,000  Climbing Salt Lake Center
08:00AM 47.1531 -104.8781 312° West 420 483 34,000 -60 Level Salt Lake Center
08:01AM 47.2328 -105.0017 314° West 419 482 33,900 -60 Descending Salt Lake Center
08:02AM 47.3103 -105.1247 313° West 414 476 33,900  Level Salt Lake Center
08:03AM 47.3869 -105.2494 312° West 411 473 34,000  Climbing Salt Lake Center
08:04AM 47.4639 -105.3744 312° West 411 473 34,000  Level Salt Lake Center
08:05AM 47.5417 -105.4989 313° West 411 473 34,000  Level Salt Lake Center
08:06AM 47.6192 -105.6256 312° West 414 476 34,000  Level Salt Lake Center
08:07AM 47.6958 -105.7522 312° West 414 476 34,000  Level Salt Lake Center
08:08AM 47.7708 -105.8761 312° West 407 468 34,000 -60 Level Salt Lake Center
08:09AM 47.8458 -106.0011 312° West 405 466 33,900 -60 Descending Salt Lake Center
08:10AM 47.9192 -106.1228 312° West 399 459 33,900  Level Salt Lake Center
08:11AM 47.9917 -106.2469 311° West 398 458 34,000  Climbing Salt Lake Center
08:17AM 48.3810 -106.9890 311° West 400 460 34,000  Level FlightAware
08:17AM 48.4180 -107.0730 304° West 406 467 34,000  Level FlightAware
08:18AM 48.4520 -107.1510 303° West 406 467 34,000  Level FlightAware
08:19AM 48.4980 -107.2530 304° West 400 460 34,000  Level FlightAware
08:20AM 48.5470 -107.3670 303° West 399 459 34,000  Level FlightAware
08:20AM 48.5940 -107.4730 304° West 398 458 34,000  Level FlightAware
08:21AM 48.6300 -107.5550 304° West 398 458 34,000  Level FlightAware
08:22AM 48.6670 -107.6410 303° West 398 458 34,000  Level FlightAware
08:22AM 48.7070 -107.7330 303° West 399 459 34,000  Level FlightAware
08:23AM 48.7380 -107.8040 304° West 399 459 34,000  Level FlightAware
08:23AM 48.7680 -107.8760 302° West 399 459 34,000  Level FlightAware
08:24AM 48.8250 -108.0110 303° West 396 456 34,000  Level FlightAware
08:25AM 48.8550 -108.0830 302° West 396 456 34,000  Level FlightAware
08:25AM 48.8850 -108.1560 302° West 396 456 34,000  Level FlightAware
08:26AM 48.9140 -108.2280 302° West 396 456 34,000  Level FlightAware
08:27AM 48.9450 -108.3020 303° West 396 456 34,000  Level FlightAware
08:27AM 48.9750 -108.3750 302° West 396 456 34,000  Level FlightAware
08:28AM 49.0040 -108.4470 302° West 396 456 34,000  Level FlightAware
08:28AM 49.0340 -108.5200 302° West 396 456 34,000  Level FlightAware
08:29AM 49.0650 -108.5960 302° West 396 456 34,000  Level FlightAware
08:30AM 49.0950 -108.6690 302° West 396 456 34,000  Level FlightAware
08:30AM 49.1250 -108.7410 303° West 396 456 34,000  Level FlightAware
08:31AM 49.2260 -108.9610 305° West 402 463 34,000  Level FlightAware
08:31AM 49.2590 -109.0430 302° West 400 460 34,000  Level FlightAware
08:32AM 49.2900 -109.1170 303° West 401 461 34,000  Level FlightAware
08:33AM 49.3260 -109.2040 302° West 401 461 34,000  Level FlightAware
08:33AM 49.3650 -109.3000 302° West 402 463 34,000  Level FlightAware
08:34AM 49.4000 -109.3850 302° West 407 468 34,000  Level FlightAware
08:34AM 49.4330 -109.4660 302° West 409 471 34,000  Level FlightAware
08:35AM 49.4700 -109.5570 302° West 406 467 34,000  Level FlightAware
08:35AM 49.5010 -109.6360 301° West 405 466 34,000  Level FlightAware
08:36AM 49.5400 -109.7320 302° West 407 468 34,000  Level FlightAware
08:37AM 49.5750 -109.8180 302° West 410 472 34,000  Level FlightAware
08:37AM 49.6060 -109.8970 301° West 405 466 34,000  Level FlightAware
08:38AM 49.6440 -109.9930 301° West 402 463 34,000  Level FlightAware
08:38AM 49.6750 -110.0710 302° West 405 466 34,000  Level FlightAware
08:39AM 49.7080 -110.1560 301° West 410 472 34,000  Level FlightAware
08:40AM 49.7450 -110.2480 302° West 408 470 34,000  Level FlightAware
08:40AM 49.7760 -110.3280 301° West 405 466 34,000  Level FlightAware
08:41AM 49.8110 -110.4170 301° West 404 465 34,000  Level FlightAware
08:41AM 49.8460 -110.5060 301° West 404 465 34,000  Level FlightAware
08:42AM 49.8800 -110.5950 301° West 403 464 34,000  Level FlightAware
08:42AM 49.9110 -110.6740 301° West 404 465 34,000  Level FlightAware
08:43AM 49.9460 -110.7660 301° West 404 465 34,000  Level FlightAware
08:44AM 49.9790 -110.8510 301° West 403 464 34,000  Level FlightAware
08:44AM 50.0110 -110.9300 302° West 403 464 34,000  Level FlightAware
08:45AM 50.0490 -111.0260 302° West 402 463 34,000  Level FlightAware
08:45AM 50.0790 -111.1020 302° West 403 464 34,000  Level FlightAware
08:46AM 50.1170 -111.1990 301° West 402 463 34,000  Level FlightAware
08:47AM 50.1470 -111.2750 302° West 403 464 34,000  Level FlightAware
08:47AM 50.1790 -111.3600 300° West 404 465 34,000  Level FlightAware
08:48AM 50.2140 -111.4470 302° West 405 466 34,000  Level FlightAware
08:48AM 50.2530 -111.5470 301° West 405 466 34,000  Level FlightAware
08:49AM 50.2820 -111.6230 301° West 406 467 34,000  Level FlightAware
08:50AM 50.3200 -111.7230 301° West 406 467 34,000  Level FlightAware
08:50AM 50.3500 -111.7990 302° West 407 468 34,000  Level FlightAware
08:51AM 50.3830 -111.8880 300° West 408 470 34,000  Level FlightAware
08:51AM 50.4170 -111.9770 301° West 409 471 34,000  Level FlightAware
08:52AM 50.4560 -112.0790 301° West 410 472 34,000  Level FlightAware
08:52AM 50.4850 -112.1560 301° West 411 473 34,000  Level FlightAware
08:53AM 50.5230 -112.2580 300° West 411 473 34,000  Level FlightAware
08:54AM 50.5530 -112.3350 302° West 412 474 34,000  Level FlightAware
08:54AM 50.5910 -112.4390 300° West 413 475 34,000  Level FlightAware
08:55AM 50.6210 -112.5170 301° West 414 476 34,000  Level FlightAware
08:55AM 50.6540 -112.6080 300° West 413 475 34,000  Level FlightAware
08:56AM 50.6930 -112.7140 300° West 412 474 34,000  Level FlightAware
08:56AM 50.7220 -112.7920 300° West 407 468 34,000  Level FlightAware
08:57AM 50.7560 -112.8830 301° West 407 468 34,000  Level FlightAware
08:58AM 50.7900 -112.9760 300° West 408 470 34,000  Level FlightAware
08:58AM 50.8240 -113.0670 301° West 409 471 34,000  Level FlightAware
08:59AM 50.8580 -113.1620 300° West 415 478 34,000  Level FlightAware
08:59AM 50.8920 -113.2540 300° West 416 479 34,000  Level FlightAware
09:00AM 50.9260 -113.3490 300° West 412 474 34,000  Level FlightAware
09:01AM 50.9590 -113.4420 299° West 412 474 34,000  Level FlightAware
09:01AM 50.9870 -113.5210 299° West 411 473 34,000  Level FlightAware
09:02AM 51.0230 -113.6110 302° West 406 467 34,000  Level FlightAware
09:02AM 51.0710 -113.7040 309° West 403 464 34,000  Level FlightAware
09:03AM 51.1200 -113.7740 318° Northwest 406 467 34,000  Level FlightAware
09:04AM 51.1740 -113.8330 326° Northwest 398 458 34,000  Level FlightAware
09:04AM 51.2410 -113.8850 334° Northwest 396 456 34,000  Level FlightAware
09:05AM 51.3030 -113.9180 342° North 396 456 34,000  Level FlightAware
09:05AM 51.3660 -113.9370 349° North 404 465 34,000  Level FlightAware
09:06AM 51.4330 -113.9460 355° North 404 465 34,000  Level FlightAware
09:07AM 51.4990 -113.9540 356° North 403 464 34,000  Level FlightAware
09:07AM 51.5630 -113.9650 354° North 402 463 34,000  Level FlightAware
09:08AM 51.6380 -113.9790 353° North 401 461 34,000  Level FlightAware
09:08AM 51.7100 -113.9920 354° North 392 451 34,000  Level FlightAware
09:09AM 51.7750 -114.0050 353° North 392 451 34,000 -480 Level FlightAware
09:10AM 51.8290 -114.0150 353° North 387 445 33,500 -2,160 Descending FlightAware
09:10AM 51.8940 -114.0270 354° North 385 443 31,700 -2,880 Descending FlightAware
09:11AM 51.9640 -114.0400 353° North 387 445 29,900 -2,640 Descending FlightAware
09:11AM 52.0270 -114.0530 353° North 369 425 28,400 -2,400 Descending FlightAware
09:12AM 52.0770 -114.0620 354° North 369 425 27,300 -2,340 Descending FlightAware
09:12AM 52.1360 -114.0740 353° North 359 413 25,900 -2,280 Descending FlightAware
09:13AM 52.2010 -114.0860 354° North 340 391 24,500 -2,100 Descending FlightAware
09:14AM 52.2490 -114.0940 354° North 338 389 23,500 -1,920 Descending FlightAware
09:14AM 52.3020 -114.1040 353° North 343 395 22,400 -1,980 Descending FlightAware
09:15AM 52.3580 -114.1150 353° North 339 390 21,200 -2,040 Descending FlightAware
09:15AM 52.4230 -114.1270 354° North 339 390 19,900 -1,980 Descending FlightAware
09:16AM 52.4710 -114.1350 354° North 343 395 18,900 -2,100 Descending FlightAware
09:16AM 52.5250 -114.1430 355° North 336 387 17,700 -1,860 Descending FlightAware
09:17AM 52.5510 -114.1420 North 338 389 17,200 -1,620 Descending FlightAware
09:17AM 52.5850 -114.1320 10° North 334 384 16,500 -1,920 Descending FlightAware
09:18AM 52.6450 -114.1060 15° North 337 388 15,300 -1,980 Descending FlightAware
09:19AM 52.7080 -114.0780 15° North 324 373 14,000 -2,160 Descending FlightAware
09:19AM 52.7600 -114.0540 16° North 322 371 12,600 -2,280 Descending FlightAware
09:19AM 52.7800 -114.0420 20° North 326 375 12,100 -2,040 Descending FlightAware
09:20AM 52.7960 -114.0170 43° Northeast 331 381 11,600 -1,320 Descending FlightAware
09:20AM 52.8300 -113.9550 48° Northeast 307 353 11,000 -900 Descending FlightAware
09:21AM 52.8600 -113.8970 49° Northeast 285 328 10,600 -1,020 Descending FlightAware
09:21AM 52.8820 -113.8550 49° Northeast 275 316 10,000 -1,560 Descending FlightAware
09:22AM 52.9010 -113.8190 49° Northeast 277 319 9,300 -1,740 Descending FlightAware
09:22AM 52.9280 -113.7680 49° Northeast 276 318 8,500 -1,620 Descending FlightAware
09:23AM 52.9610 -113.7070 48° Northeast 274 315 7,500 -1,500 Descending FlightAware
09:23AM 52.9790 -113.6730 49° Northeast 274 315 7,000 -1,560 Descending FlightAware
09:24AM 53.0050 -113.6280 46° Northeast 266 306 6,200 -960 Descending FlightAware
09:24AM 53.0250 -113.5910 48° Northeast 259 298 5,900 -360 Descending FlightAware
09:25AM 53.0410 -113.5600 49° Northeast 241 277 5,900  Level FlightAware
09:25AM 53.0580 -113.5300 47° Northeast 241 277 5,900 -180 Level FlightAware
09:25AM 53.0840 -113.4830 47° Northeast 231 266 5,800 -540 Descending FlightAware
09:26AM 53.0950 -113.4620 49° Northeast 223 257 5,600 -780 Descending FlightAware
09:26AM 53.1110 -113.4320 48° Northeast 208 239 5,300 -1,080 Descending FlightAware
09:26AM 53.1240 -113.4090 47° Northeast 205 236 4,800 -1,380 Descending FlightAware
09:27AM 53.1340 -113.3920 46° Northeast 198 228 4,500 -1,200 Descending FlightAware
09:27AM 53.1380 -113.3890 24° Northeast 194 223 4,400 -1,200 Descending FlightAware
09:27AM 53.1460 -113.3860 13° North 187 215 4,200 -600 Descending FlightAware
09:27AM 53.1630 -113.3900 352° North 186 214 4,100 -360 Descending FlightAware
09:27AM 53.1760 -113.3930 352° North 186 214 4,000 -240 Descending FlightAware
09:28AM 53.1840 -113.3960 347° North 185 213 4,000  Level FlightAware
09:28AM 53.1910 -113.4030 329° Northwest 181 208 4,000  Level FlightAware
09:28AM 53.2020 -113.4230 313° West 174 200 4,000  Level FlightAware
09:28AM 53.2130 -113.4400 317° Northwest 160 184 4,000  Level FlightAware
09:29AM 53.2260 -113.4620 315° West 156 180 4,000 -300 Level FlightAware
09:29AM 53.2360 -113.4780 316° Northwest 138 159 3,800 -540 Descending FlightAware
09:29AM 53.2410 -113.4860 316° Northwest 127 146 3,700 -480 Descending FlightAware
09:30AM 53.2470 -113.4960 315° West 124 143 3,500 -240 Descending FlightAware
09:30AM 53.2560 -113.5110 315° West 124 143 3,500 -960 Level FlightAware
09:31AM 53.2700 -113.5360 313° West 116 133 2,800 -1,440 Descending FlightAware
09:31AM 53.2770 -113.5480 314° West 118 136 2,600 -240 Descending FlightAware
09:32AM 53.2900 -113.5690 316° Northwest 125 144 2,600  Level FlightAware